Time;durP1;ratioP1;P1;durP2;ratioP2;P2;SDS_P1;SDS_P2;PMS_P1;PMS_P2;Temp;Humidity;BMP_temperature;BMP_pressure;BME280_temperature;BME280_humidity;BME280_pressure;Samples;Min_cycle;Max_cycle;Signal;HPM_P1;HPM_P2
2023/09/05 00:00:05;;;;;;;4.87;3.50;;;;;;;16.44;100.00;95333.25;4967533;28;20850;-82
2023/09/05 00:02:31;;;;;;;5.50;4.00;;;;;;;16.54;100.00;95322.97;4951038;28;20694;-82
2023/09/05 00:04:57;;;;;;;5.43;3.70;;;;;;;16.58;100.00;95331.25;4968712;28;20239;-81
2023/09/05 00:07:23;;;;;;;6.13;3.63;;;;;;;16.55;100.00;95321.13;4973028;28;20252;-82
2023/09/05 00:09:49;;;;;;;6.03;3.63;;;;;;;16.54;100.00;95330.09;4950667;28;20720;-83
2023/09/05 00:12:14;;;;;;;4.03;3.23;;;;;;;16.36;100.00;95320.34;4960300;28;20251;-83
2023/09/05 00:14:40;;;;;;;5.23;3.50;;;;;;;16.53;100.00;95307.31;4973927;28;20391;-84
2023/09/05 00:17:06;;;;;;;5.50;3.23;;;;;;;16.66;100.00;95307.94;4960670;28;20729;-84
2023/09/05 00:19:32;;;;;;;5.27;3.37;;;;;;;16.54;100.00;95304.47;4968377;28;20248;-83
2023/09/05 00:21:58;;;;;;;6.30;3.40;;;;;;;16.49;100.00;95304.31;4975054;28;20318;-84
2023/09/05 00:24:38;;;;;;;5.83;3.20;;;;;;;16.58;100.00;95307.44;4943734;28;20322;-84
2023/09/05 00:27:07;;;;;;;4.50;3.40;;;;;;;16.41;100.00;95303.81;4974023;28;20240;-82
2023/09/05 00:29:33;;;;;;;5.43;3.20;;;;;;;16.46;100.00;95302.13;4966985;28;20626;-82
2023/09/05 00:31:59;;;;;;;4.67;3.17;;;;;;;16.47;100.00;95310.84;4972382;28;20243;-84
2023/09/05 00:34:28;;;;;;;4.07;3.33;;;;;;;16.42;100.00;95306.25;4937645;28;20234;-82
2023/09/05 00:36:54;;;;;;;4.63;3.20;;;;;;;16.31;100.00;95298.28;4972662;28;20351;-83
2023/09/05 00:39:20;;;;;;;5.20;3.10;;;;;;;16.22;100.00;95305.72;4973436;28;20704;-82
2023/09/05 00:41:46;;;;;;;6.67;3.43;;;;;;;16.39;100.00;95296.13;4952368;28;20228;-76
2023/09/05 00:44:13;;;;;;;7.00;3.60;;;;;;;16.41;100.00;95298.53;4971057;28;20236;-76
2023/09/05 00:46:41;;;;;;;4.80;3.13;;;;;;;16.41;100.00;95287.97;4957943;28;20235;-76
2023/09/05 00:49:08;;;;;;;4.70;3.20;;;;;;;16.49;100.00;95293.75;4966138;28;20228;-75
2023/09/05 00:51:34;;;;;;;5.40;3.27;;;;;;;16.57;100.00;95295.28;4948147;28;20282;-75
2023/09/05 00:54:01;;;;;;;4.50;3.17;;;;;;;16.54;100.00;95288.63;4975729;28;20236;-74
2023/09/05 00:56:27;;;;;;;5.57;3.17;;;;;;;16.63;100.00;95294.38;4969356;28;20243;-75
2023/09/05 00:58:53;;;;;;;4.90;3.30;;;;;;;16.71;100.00;95300.13;4959237;28;20327;-75
2023/09/05 01:01:19;;;;;;;4.60;2.90;;;;;;;16.66;100.00;95291.28;4947235;28;20301;-74
2023/09/05 01:03:44;;;;;;;5.93;3.13;;;;;;;16.58;100.00;95294.22;4969392;28;20323;-74
2023/09/05 01:06:22;;;;;;;7.90;3.10;;;;;;;16.50;100.00;95289.28;4961658;28;20243;-74
2023/09/05 01:08:59;;;;;;;4.73;2.70;;;;;;;16.36;100.00;95293.16;4957944;28;20263;-75
2023/09/05 01:11:24;;;;;;;3.53;3.00;;;;;;;16.40;100.00;95295.09;4960209;28;20242;-74
2023/09/05 01:13:50;;;;;;;6.33;2.90;;;;;;;16.31;100.00;95296.44;4972570;28;20246;-75
2023/09/05 01:16:15;;;;;;;7.40;3.03;;;;;;;16.34;100.00;95296.00;4968407;28;20330;-75
2023/09/05 01:18:41;;;;;;;3.47;2.80;;;;;;;16.32;100.00;95300.69;4971918;28;20283;-75
2023/09/05 01:21:35;;;;;;;2.73;2.50;;;;;;;16.50;100.00;95305.13;4956920;28;20629;-75
2023/09/05 01:24:16;;;;;;;5.03;2.87;;;;;;;16.42;100.00;95302.78;4958934;28;20240;-75
2023/09/05 01:26:42;;;;;;;3.67;2.87;;;;;;;16.45;100.00;95305.00;4973980;28;20239;-75
2023/09/05 01:29:08;;;;;;;3.53;2.80;;;;;;;16.43;100.00;95304.41;4955406;28;20242;-74
2023/09/05 01:31:34;;;;;;;3.40;2.50;;;;;;;16.56;100.00;95312.97;4959500;28;20240;-76
2023/09/05 01:34:00;;;;;;;3.90;3.03;;;;;;;16.48;100.00;95301.91;4957422;28;20274;-76
2023/09/05 01:36:28;;;;;;;3.40;2.80;;;;;;;16.46;100.00;95296.00;4974443;28;20631;-76
2023/09/05 01:38:54;;;;;;;4.63;3.07;;;;;;;16.23;100.00;95288.84;4972908;28;20231;-75
2023/09/05 01:41:19;;;;;;;3.60;3.00;;;;;;;16.46;100.00;95285.44;4964266;28;20240;-75
2023/09/05 01:43:45;;;;;;;3.80;2.73;;;;;;;16.36;100.00;95290.50;4979472;28;20223;-75
2023/09/05 01:46:11;;;;;;;5.87;2.90;;;;;;;16.52;100.00;95284.59;4958502;28;20235;-74
2023/09/05 01:48:36;;;;;;;4.70;2.80;;;;;;;16.61;100.00;95276.09;4971229;28;20240;-76
2023/09/05 01:51:38;;;;;;;4.73;2.90;;;;;;;16.43;100.00;95291.22;4968623;28;20240;-76
2023/09/05 01:54:04;;;;;;;3.27;2.73;;;;;;;16.29;100.00;95287.16;4988654;28;20991;-85
2023/09/05 01:56:30;;;;;;;4.10;2.87;;;;;;;16.36;100.00;95282.56;4965715;28;20270;-87
2023/09/05 01:58:55;;;;;;;3.67;2.80;;;;;;;16.26;100.00;95279.66;4972069;28;20239;-85
2023/09/05 02:01:21;;;;;;;3.50;3.00;;;;;;;16.26;100.00;95287.59;4974654;28;21188;-85
2023/09/05 02:03:48;;;;;;;4.10;3.03;;;;;;;16.44;100.00;95288.31;4968134;28;20316;-86
2023/09/05 02:06:13;;;;;;;4.03;3.10;;;;;;;16.42;100.00;95294.88;4966520;28;20232;-87
2023/09/05 02:08:39;;;;;;;8.40;3.00;;;;;;;16.36;100.00;95295.78;4971166;28;20375;-86
2023/09/05 02:11:09;;;;;;;6.27;3.07;;;;;;;16.36;100.00;95301.06;4974911;28;20306;-85
2023/09/05 02:13:35;;;;;;;5.33;3.10;;;;;;;16.37;100.00;95292.91;4959229;28;20311;-85
2023/09/05 02:16:01;;;;;;;4.50;3.10;;;;;;;16.51;100.00;95297.00;4947083;28;20232;-84
2023/09/05 02:18:26;;;;;;;5.77;3.07;;;;;;;16.49;100.00;95308.78;4955648;28;20235;-86
2023/09/05 02:20:57;;;;;;;8.23;3.13;;;;;;;16.41;100.00;95317.03;4944555;28;20687;-87
2023/09/05 02:23:23;;;;;;;4.63;3.00;;;;;;;16.39;100.00;95314.63;4939402;28;20257;-86
2023/09/05 02:25:56;;;;;;;4.70;3.07;;;;;;;16.46;100.00;95307.41;4973582;28;20228;-86
2023/09/05 02:28:21;;;;;;;5.87;3.37;;;;;;;16.41;100.00;95311.75;4967195;28;20251;-85
2023/09/05 02:30:47;;;;;;;3.50;2.80;;;;;;;16.48;100.00;95309.84;4934844;28;20684;-86
2023/09/05 02:33:13;;;;;;;7.47;3.00;;;;;;;16.48;100.00;95312.47;4933132;28;21066;-86
2023/09/05 02:35:38;;;;;;;3.77;2.93;;;;;;;16.32;100.00;95313.09;4963688;28;20224;-86
2023/09/05 02:38:04;;;;;;;7.70;3.30;;;;;;;16.28;100.00;95309.31;4949987;28;20293;-85
2023/09/05 02:40:29;;;;;;;5.57;2.83;;;;;;;16.31;100.00;95309.63;4933757;28;21195;-86
2023/09/05 02:42:55;;;;;;;4.73;3.10;;;;;;;16.21;100.00;95311.22;4971839;28;20640;-86
2023/09/05 02:45:24;;;;;;;8.17;3.07;;;;;;;16.29;100.00;95297.72;4945745;28;20328;-85
2023/09/05 02:47:59;;;;;;;4.07;2.73;;;;;;;16.28;100.00;95299.56;4967044;28;20239;-84
2023/09/05 02:50:24;;;;;;;6.33;2.87;;;;;;;16.32;100.00;95302.53;4962868;28;20243;-85
2023/09/05 02:52:50;;;;;;;3.27;2.77;;;;;;;16.36;100.00;95306.34;4939770;28;20247;-86
2023/09/05 02:55:15;;;;;;;4.17;2.93;;;;;;;16.38;100.00;95309.56;4952673;28;20235;-75
2023/09/05 02:57:41;;;;;;;4.10;3.00;;;;;;;16.45;100.00;95303.16;4936470;28;20319;-75
2023/09/05 03:00:07;;;;;;;4.17;2.90;;;;;;;16.40;100.00;95302.22;4967607;28;20234;-74
2023/09/05 03:02:33;;;;;;;5.33;2.90;;;;;;;16.43;100.00;95305.19;4934203;28;20776;-74
2023/09/05 03:04:59;;;;;;;6.03;3.20;;;;;;;16.40;100.00;95310.97;4945364;28;20257;-76
2023/09/05 03:07:25;;;;;;;4.70;3.00;;;;;;;16.26;100.00;95311.38;4946699;28;20222;-74
2023/09/05 03:09:51;;;;;;;7.23;3.00;;;;;;;16.37;100.00;95318.50;4937152;28;20382;-75
2023/09/05 03:12:17;;;;;;;5.70;3.40;;;;;;;16.11;100.00;95315.22;4966642;28;20247;-76
2023/09/05 03:14:43;;;;;;;8.50;3.60;;;;;;;16.19;100.00;95322.81;4960191;28;20224;-75
2023/09/05 03:17:09;;;;;;;6.40;3.30;;;;;;;16.19;100.00;95311.47;4948200;28;20239;-76
2023/09/05 03:19:39;;;;;;;5.93;3.50;;;;;;;15.90;100.00;95309.63;4956029;28;20227;-85
2023/09/05 03:22:07;;;;;;;5.47;3.70;;;;;;;16.03;100.00;95312.06;4950739;28;20643;-85
2023/09/05 03:24:33;;;;;;;4.67;3.50;;;;;;;15.92;100.00;95318.13;4943287;28;20250;-84
2023/09/05 03:26:59;;;;;;;4.90;3.70;;;;;;;16.00;100.00;95317.81;4950874;28;20318;-85
2023/09/05 03:29:25;;;;;;;7.07;3.70;;;;;;;15.97;100.00;95329.63;4948103;28;20238;-86
2023/09/05 03:31:52;;;;;;;6.07;3.73;;;;;;;15.94;100.00;95334.53;4957317;28;20243;-85
2023/09/05 03:34:20;;;;;;;6.30;3.70;;;;;;;16.00;100.00;95338.94;4990161;28;20772;-75
2023/09/05 03:36:45;;;;;;;7.27;3.97;;;;;;;16.02;100.00;95340.34;4975321;28;20228;-75
2023/09/05 03:39:11;;;;;;;5.47;4.03;;;;;;;16.10;100.00;95344.47;4959786;28;20270;-76
2023/09/05 03:41:37;;;;;;;7.33;4.80;;;;;;;16.12;100.00;95337.94;4959394;28;20239;-75
2023/09/05 03:44:03;;;;;;;10.13;6.03;;;;;;;16.20;100.00;95339.47;4975031;28;20242;-75
2023/09/05 03:46:28;;;;;;;11.07;8.07;;;;;;;16.08;100.00;95333.34;4975679;28;20472;-75
2023/09/05 03:48:55;;;;;;;11.03;8.23;;;;;;;16.20;100.00;95342.13;4997008;28;20285;-74
2023/09/05 03:51:21;;;;;;;14.63;9.70;;;;;;;16.24;100.00;95339.84;4957580;28;20238;-74
2023/09/05 03:53:47;;;;;;;15.77;9.90;;;;;;;16.19;100.00;95329.97;4946221;28;20234;-74
2023/09/05 03:56:41;;;;;;;;;;;;;;;;;;;;;
2023/09/05 03:59:07;;;;;;;15.77;10.53;;;;;;;16.14;100.00;95333.25;4966703;28;20724;-73
2023/09/05 04:01:33;;;;;;;14.43;10.53;;;;;;;16.21;100.00;95329.72;4973747;28;20223;-75
2023/09/05 04:03:58;;;;;;;16.60;10.50;;;;;;;16.16;100.00;95318.00;4960220;28;20239;-75
2023/09/05 04:06:24;;;;;;;15.07;10.17;;;;;;;16.05;100.00;95316.09;4959709;28;20612;-74
2023/09/05 04:08:49;;;;;;;15.70;10.23;;;;;;;16.11;100.00;95331.06;4973488;28;20240;-73
2023/09/05 04:11:41;;;;;;;;;;;;;;;;;;;;;
2023/09/05 04:14:10;;;;;;;14.57;10.40;;;;;;;16.15;100.00;95324.31;4952280;28;20243;-74
2023/09/05 04:16:36;;;;;;;15.97;10.27;;;;;;;16.13;100.00;95322.91;4958308;28;21062;-75
2023/09/05 04:19:01;;;;;;;17.00;10.63;;;;;;;16.08;100.00;95326.22;4947391;28;20343;-74
2023/09/05 04:21:27;;;;;;;17.40;10.27;;;;;;;16.22;100.00;95337.41;4976236;28;20243;-75
2023/09/05 04:23:53;;;;;;;15.47;10.17;;;;;;;16.27;100.00;95334.09;4991971;28;20231;-75
2023/09/05 04:29:42;;;;;;;15.43;10.90;;;;;;;16.23;100.00;95338.22;5014745;23;20230;-75
2023/09/05 04:32:07;;;;;;;15.17;10.13;;;;;;;16.33;100.00;95349.06;5019884;28;20237;-75
2023/09/05 04:34:59;;;;;;;16.60;10.97;;;;;;;16.23;100.00;95340.84;5004095;28;20238;-75
2023/09/05 04:37:25;;;;;;;16.27;10.80;;;;;;;16.24;100.00;95342.47;5018351;28;20252;-75
2023/09/05 04:39:51;;;;;;;15.33;11.17;;;;;;;16.21;100.00;95337.66;4980058;28;20626;-74
2023/09/05 04:42:17;;;;;;;16.90;11.20;;;;;;;16.26;100.00;95341.22;4988490;28;20400;-74
2023/09/05 04:44:42;;;;;;;17.03;10.13;;;;;;;16.29;100.00;95332.84;4968451;28;20656;-74
2023/09/05 04:47:40;;;;;;;17.60;10.80;;;;;;;16.32;100.00;95337.69;5007558;28;20321;-73
2023/09/05 04:50:08;;;;;;;16.13;10.47;;;;;;;16.44;100.00;95327.97;4989535;28;20234;-74
2023/09/05 04:52:34;;;;;;;16.20;10.67;;;;;;;16.41;100.00;95333.69;4988187;28;20241;-75
2023/09/05 04:55:00;;;;;;;16.93;10.30;;;;;;;16.46;100.00;95333.00;5001692;28;20908;-74
2023/09/05 04:57:26;;;;;;;18.97;10.93;;;;;;;16.47;100.00;95332.00;4999193;28;20743;-75
2023/09/05 04:59:57;;;;;;;16.77;10.90;;;;;;;16.56;100.00;95330.66;4990613;28;20233;-74
2023/09/05 05:02:23;;;;;;;17.40;11.60;;;;;;;16.56;100.00;95336.75;4975123;28;21065;-73
2023/09/05 05:04:49;;;;;;;18.80;11.23;;;;;;;16.60;100.00;95332.63;4985709;28;20245;-74
2023/09/05 05:07:15;;;;;;;17.03;11.27;;;;;;;16.67;100.00;95345.75;4992623;28;20238;-75
2023/09/05 05:09:40;;;;;;;18.40;11.33;;;;;;;16.58;100.00;95347.91;5000493;28;20230;-74
2023/09/05 05:12:06;;;;;;;17.50;11.80;;;;;;;16.75;100.00;95356.00;5003064;28;20230;-73
2023/09/05 05:14:32;;;;;;;18.23;11.70;;;;;;;16.66;100.00;95358.16;5002046;28;20239;-72
2023/09/05 05:16:58;;;;;;;17.00;11.07;;;;;;;16.68;100.00;95356.09;4987590;28;20230;-73
2023/09/05 05:19:24;;;;;;;17.50;11.00;;;;;;;16.73;100.00;95355.41;4984112;28;20256;-72
2023/09/05 05:21:51;;;;;;;18.97;11.73;;;;;;;16.69;100.00;95365.63;5005608;28;20234;-73
2023/09/05 05:24:17;;;;;;;18.20;11.07;;;;;;;16.80;100.00;95353.47;4998639;28;20238;-73
2023/09/05 05:26:43;;;;;;;17.80;11.40;;;;;;;16.81;100.00;95361.16;5006410;28;20238;-75
2023/09/05 05:29:09;;;;;;;17.80;11.77;;;;;;;16.68;100.00;95364.03;5008390;28;20240;-73
2023/09/05 05:31:34;;;;;;;18.70;11.50;;;;;;;16.77;100.00;95360.03;4995344;28;20665;-73
2023/09/05 05:34:00;;;;;;;19.93;11.70;;;;;;;16.79;100.00;95360.59;5009995;28;20295;-72
2023/09/05 05:36:26;;;;;;;19.10;11.70;;;;;;;16.76;100.00;95360.25;4993086;28;20229;-73
2023/09/05 05:38:52;;;;;;;16.93;11.33;;;;;;;16.82;100.00;95365.44;5001356;28;21024;-74
2023/09/05 05:41:18;;;;;;;21.10;12.13;;;;;;;16.96;100.00;95359.94;4996805;28;20718;-74
2023/09/05 05:43:43;;;;;;;19.53;12.13;;;;;;;16.90;100.00;95360.84;5025248;28;20329;-73
2023/09/05 05:46:09;;;;;;;18.30;12.10;;;;;;;16.89;100.00;95370.63;5020871;28;20229;-74
2023/09/05 05:48:35;;;;;;;18.53;12.47;;;;;;;16.93;100.00;95369.16;5021792;28;20229;-73
2023/09/05 05:51:01;;;;;;;18.93;12.20;;;;;;;17.03;100.00;95365.94;5008163;28;20235;-74
2023/09/05 05:53:28;;;;;;;17.23;12.00;;;;;;;17.04;100.00;95365.69;5004758;28;20841;-73
2023/09/05 05:55:54;;;;;;;19.07;12.20;;;;;;;17.07;100.00;95369.72;4993788;28;20279;-76
2023/09/05 05:58:20;;;;;;;17.43;11.80;;;;;;;17.13;100.00;95374.91;4999202;28;20264;-74
2023/09/05 06:00:51;;;;;;;18.97;12.10;;;;;;;17.02;100.00;95369.59;4990442;28;20233;-79
2023/09/05 06:03:20;;;;;;;20.33;12.30;;;;;;;17.09;100.00;95371.13;5009846;28;20291;-81
2023/09/05 06:05:46;;;;;;;21.30;12.53;;;;;;;17.14;100.00;95368.59;5009752;28;20237;-80
2023/09/05 06:08:12;;;;;;;18.90;12.20;;;;;;;17.04;100.00;95378.94;5001063;28;20741;-79
2023/09/05 06:10:38;;;;;;;19.37;12.30;;;;;;;17.05;100.00;95377.88;5012485;28;20721;-79
2023/09/05 06:13:04;;;;;;;17.13;12.03;;;;;;;17.09;100.00;95372.94;5014252;28;20743;-78
2023/09/05 06:15:33;;;;;;;18.20;12.60;;;;;;;16.98;100.00;95369.25;5005546;28;20294;-79
2023/09/05 06:17:59;;;;;;;19.37;12.10;;;;;;;17.05;100.00;95361.22;5005794;28;20261;-78
2023/09/05 06:20:25;;;;;;;20.13;13.00;;;;;;;17.10;100.00;95362.13;5006618;28;20229;-79
2023/09/05 06:22:51;;;;;;;18.27;12.07;;;;;;;17.00;100.00;95361.91;5017281;28;21119;-76
2023/09/05 06:25:17;;;;;;;19.80;12.40;;;;;;;17.12;100.00;95368.03;5022045;28;20233;-77
2023/09/05 06:27:43;;;;;;;19.77;12.83;;;;;;;17.14;100.00;95376.53;5004043;28;20313;-75
2023/09/05 06:30:09;;;;;;;19.87;12.60;;;;;;;16.97;100.00;95362.38;5020023;28;20225;-79
2023/09/05 06:32:35;;;;;;;17.23;12.53;;;;;;;16.96;100.00;95368.66;5018767;28;20410;-79
2023/09/05 06:35:00;;;;;;;16.53;11.87;;;;;;;17.03;100.00;95365.94;5027351;28;20856;-79
2023/09/05 06:37:27;;;;;;;17.70;12.00;;;;;;;16.95;100.00;95380.31;4991896;28;20710;-80
2023/09/05 06:39:53;;;;;;;18.50;11.97;;;;;;;16.99;100.00;95381.44;4993415;28;20248;-78
2023/09/05 06:42:19;;;;;;;17.37;12.33;;;;;;;16.88;100.00;95389.38;4992631;28;20233;-79
2023/09/05 06:44:44;;;;;;;17.73;12.07;;;;;;;16.95;100.00;95387.41;4986741;28;20233;-78
2023/09/05 06:47:13;;;;;;;16.77;11.80;;;;;;;16.99;100.00;95389.38;5023364;28;20620;-81
2023/09/05 06:49:38;;;;;;;18.30;11.80;;;;;;;17.03;100.00;95387.88;5009146;28;20225;-78
2023/09/05 06:52:04;;;;;;;19.00;10.90;;;;;;;16.89;100.00;95394.41;4987536;28;20229;-80
2023/09/05 06:54:30;;;;;;;16.47;11.00;;;;;;;17.01;100.00;95389.94;5024385;28;20237;-79
2023/09/05 06:56:56;;;;;;;15.80;11.40;;;;;;;17.02;100.00;95381.00;5009605;28;20314;-78
2023/09/05 06:59:21;;;;;;;16.17;10.53;;;;;;;17.03;100.00;95387.88;4992588;28;20742;-78
2023/09/05 07:01:47;;;;;;;17.50;10.63;;;;;;;17.07;100.00;95381.13;5009208;28;20236;-80
2023/09/05 07:04:16;;;;;;;14.73;10.17;;;;;;;17.15;100.00;95391.34;5025699;28;20258;-77
2023/09/05 07:06:41;;;;;;;21.67;11.20;;;;;;;17.29;100.00;95389.31;5007505;28;20245;-78
2023/09/05 07:09:07;;;;;;;17.57;10.17;;;;;;;17.31;100.00;95403.13;5025591;28;20256;-77
2023/09/05 07:11:33;;;;;;;14.73;10.37;;;;;;;17.33;100.00;95415.09;5014928;28;20262;-77
2023/09/05 07:13:59;;;;;;;23.10;14.00;;;;;;;17.35;100.00;95414.84;5008609;28;20761;-77
2023/09/05 07:16:25;;;;;;;18.60;11.57;;;;;;;17.41;100.00;95422.66;4992878;28;20233;-73
2023/09/05 07:18:51;;;;;;;15.70;10.60;;;;;;;17.39;100.00;95414.16;4996677;28;20243;-72
2023/09/05 07:21:16;;;;;;;20.47;11.17;;;;;;;17.35;100.00;95423.59;5006808;28;20230;-73
2023/09/05 07:23:42;;;;;;;15.83;10.60;;;;;;;17.39;100.00;95426.56;5009299;28;20234;-72
2023/09/05 07:26:07;;;;;;;16.53;10.80;;;;;;;17.45;100.00;95425.69;5009086;28;21012;-72
2023/09/05 07:28:33;;;;;;;17.97;12.70;;;;;;;17.46;100.00;95429.91;5022994;28;20237;-72
2023/09/05 07:31:00;;;;;;;14.03;10.63;;;;;;;17.53;100.00;95437.81;5017489;28;20237;-72
2023/09/05 07:33:25;;;;;;;14.83;10.60;;;;;;;17.55;100.00;95430.44;5009931;28;20264;-72
2023/09/05 07:35:51;;;;;;;14.77;10.10;;;;;;;17.52;100.00;95442.28;5007767;28;20699;-72
2023/09/05 07:38:20;;;;;;;14.97;10.10;;;;;;;17.47;100.00;95442.13;5000136;28;20256;-73
2023/09/05 07:40:47;;;;;;;17.73;10.27;;;;;;;17.44;100.00;95450.50;5029170;28;20226;-72
2023/09/05 07:43:13;;;;;;;13.47;10.23;;;;;;;17.39;100.00;95448.56;5011126;28;20253;-73
2023/09/05 07:45:38;;;;;;;16.37;10.17;;;;;;;17.39;100.00;95456.50;5021714;28;20229;-73
2023/09/05 07:48:07;;;;;;;13.20;9.80;;;;;;;17.33;100.00;95468.00;5024487;28;20726;-73
2023/09/05 07:50:34;;;;;;;17.10;10.27;;;;;;;17.34;100.00;95459.03;5010939;28;20218;-72
2023/09/05 07:52:59;;;;;;;14.67;9.80;;;;;;;17.35;100.00;95458.00;5004543;28;20237;-72
2023/09/05 07:55:25;;;;;;;17.43;10.97;;;;;;;17.42;100.00;95450.75;5021504;28;20234;-72
2023/09/05 07:57:51;;;;;;;13.37;9.27;;;;;;;17.40;100.00;95450.19;5005618;28;20244;-72
2023/09/05 08:00:17;;;;;;;13.17;9.57;;;;;;;17.40;100.00;95452.03;5010510;28;20338;-74
2023/09/05 08:02:43;;;;;;;15.10;9.87;;;;;;;17.42;100.00;95456.06;5026809;28;20753;-72
2023/09/05 08:05:08;;;;;;;17.10;10.07;;;;;;;17.49;100.00;95451.47;5005680;28;20222;-73
2023/09/05 08:07:35;;;;;;;14.93;9.93;;;;;;;17.65;100.00;95449.97;5040080;28;20320;-73
2023/09/05 08:10:01;;;;;;;17.20;9.63;;;;;;;17.63;100.00;95446.75;5004391;28;20237;-73
2023/09/05 08:12:26;;;;;;;17.53;10.07;;;;;;;17.71;100.00;95441.13;5013211;28;20788;-74
2023/09/05 08:14:52;;;;;;;14.67;9.93;;;;;;;17.70;99.78;95436.06;5026837;28;20230;-73
2023/09/05 08:17:17;;;;;;;13.93;9.57;;;;;;;17.77;99.96;95440.19;5024115;28;20621;-73
2023/09/05 08:19:44;;;;;;;14.57;9.80;;;;;;;17.69;100.00;95442.41;4985178;28;20603;-73
2023/09/05 08:22:12;;;;;;;16.27;10.13;;;;;;;17.86;100.00;95448.63;5019407;28;20233;-74
2023/09/05 08:24:38;;;;;;;14.30;9.70;;;;;;;17.87;99.17;95443.06;5014898;28;20261;-73
2023/09/05 08:27:05;;;;;;;17.70;8.93;;;;;;;18.00;98.83;95447.34;5008937;28;20633;-72
2023/09/05 08:29:34;;;;;;;13.20;9.30;;;;;;;18.13;97.62;95453.19;5009817;28;20245;-71
2023/09/05 08:31:59;;;;;;;14.10;9.07;;;;;;;18.42;97.80;95442.63;5004730;28;20250;-74
2023/09/05 08:34:25;;;;;;;15.77;9.23;;;;;;;18.41;97.28;95451.63;5030634;28;20237;-73
2023/09/05 08:36:50;;;;;;;11.63;8.50;;;;;;;18.34;95.23;95445.66;4993769;28;20248;-73
2023/09/05 08:39:16;;;;;;;11.03;8.23;;;;;;;18.34;95.84;95450.97;5004001;28;20233;-73
2023/09/05 08:41:42;;;;;;;12.57;8.60;;;;;;;18.53;96.25;95458.53;5007665;28;20229;-73
2023/09/05 08:44:08;;;;;;;14.33;8.50;;;;;;;18.72;95.19;95451.22;5003761;28;20226;-73
2023/09/05 08:46:35;;;;;;;14.03;7.93;;;;;;;18.94;93.42;95456.66;4997921;28;20218;-73
2023/09/05 08:49:00;;;;;;;11.20;7.80;;;;;;;18.88;93.18;95453.09;5027689;28;20304;-73
2023/09/05 08:51:34;;;;;;;12.83;8.20;;;;;;;18.92;93.32;95456.06;5018065;28;20234;-73
2023/09/05 08:54:00;;;;;;;12.53;7.80;;;;;;;18.89;90.94;95457.34;5039159;28;20230;-73
2023/09/05 08:56:26;;;;;;;14.47;7.57;;;;;;;18.76;90.45;95463.78;5008344;28;20252;-73
2023/09/05 08:58:52;;;;;;;11.33;7.73;;;;;;;18.74;90.33;95467.69;5025264;28;20237;-73
2023/09/05 09:01:19;;;;;;;10.70;7.53;;;;;;;18.81;91.85;95471.00;5008460;28;20232;-73
2023/09/05 09:03:44;;;;;;;11.10;7.40;;;;;;;18.84;91.04;95467.91;5028128;28;20234;-73
2023/09/05 09:06:10;;;;;;;11.20;7.50;;;;;;;19.02;93.43;95462.38;5019136;28;20237;-74
2023/09/05 09:08:43;;;;;;;9.80;6.93;;;;;;;19.27;88.36;95467.34;5043674;28;20233;-72
2023/09/05 09:11:09;;;;;;;11.17;6.70;;;;;;;19.42;87.64;95457.78;5004846;28;20874;-72
2023/09/05 09:13:35;;;;;;;10.20;6.90;;;;;;;19.48;85.40;95472.78;5003354;28;20237;-72
2023/09/05 09:16:02;;;;;;;15.67;6.90;;;;;;;19.54;83.44;95463.03;5010313;28;20597;-73
2023/09/05 09:18:31;;;;;;;9.83;6.07;;;;;;;19.46;85.60;95460.78;5026230;28;20229;-73
2023/09/05 09:20:59;;;;;;;12.03;6.80;;;;;;;19.56;84.71;95462.78;4995519;28;20229;-72
2023/09/05 09:23:28;;;;;;;10.63;6.13;;;;;;;19.60;83.44;95459.41;5026151;28;20229;-72
2023/09/05 09:25:54;;;;;;;11.53;6.23;;;;;;;19.62;82.99;95467.94;5015716;28;20237;-74
2023/09/05 09:28:24;;;;;;;11.13;6.30;;;;;;;19.74;82.93;95458.03;4993294;28;20286;-73
2023/09/05 09:31:01;;;;;;;11.13;5.90;;;;;;;19.93;81.11;95453.25;5019892;28;20275;-73
2023/09/05 09:33:27;;;;;;;12.53;6.33;;;;;;;20.12;83.94;95459.91;5002894;28;21029;-73
2023/09/05 09:36:11;;;;;;;8.30;5.90;;;;;;;20.33;78.59;95463.66;5005169;28;20229;-73
2023/09/05 09:38:38;;;;;;;11.83;5.67;;;;;;;20.45;80.67;95457.16;5019351;28;20232;-73
2023/09/05 09:41:06;;;;;;;11.43;6.27;;;;;;;20.48;79.31;95455.88;5009364;28;20253;-72
2023/09/05 09:43:32;;;;;;;10.33;6.00;;;;;;;20.52;81.41;95447.16;5008976;28;20336;-72
2023/09/05 09:46:03;;;;;;;11.33;6.10;;;;;;;20.63;77.73;95453.41;5023713;28;20237;-72
2023/09/05 09:48:29;;;;;;;7.77;5.87;;;;;;;20.61;79.08;95445.66;5007559;28;20241;-73
2023/09/05 09:50:56;;;;;;;10.77;6.07;;;;;;;20.54;80.16;95445.03;5021740;28;20316;-73
2023/09/05 09:53:30;;;;;;;14.37;5.87;;;;;;;20.72;80.85;95442.06;4992383;28;20984;-71
2023/09/05 09:55:56;;;;;;;10.97;6.00;;;;;;;20.98;78.34;95452.97;4998430;28;20229;-73
2023/09/05 09:58:22;;;;;;;9.67;5.30;;;;;;;20.88;74.52;95436.91;5021295;28;20253;-72
2023/09/05 10:00:47;;;;;;;8.67;5.43;;;;;;;20.95;73.53;95443.63;5026896;28;20313;-73
2023/09/05 10:03:13;;;;;;;6.80;4.80;;;;;;;20.95;72.19;95446.28;5041748;28;20244;-73
2023/09/05 10:05:41;;;;;;;11.40;4.90;;;;;;;21.05;71.31;95442.97;5009338;28;20233;-72
2023/09/05 10:08:08;;;;;;;12.83;4.80;;;;;;;20.79;71.39;95434.69;4999915;28;20240;-74
2023/09/05 10:10:34;;;;;;;7.90;5.10;;;;;;;20.95;72.64;95424.19;5010528;28;20235;-73
2023/09/05 10:12:59;;;;;;;7.43;4.97;;;;;;;21.15;72.10;95441.22;5010956;28;20631;-73
2023/09/05 10:15:25;;;;;;;12.73;5.27;;;;;;;21.19;71.10;95430.84;4987617;28;20274;-73
2023/09/05 10:17:50;;;;;;;7.47;4.70;;;;;;;21.33;71.00;95435.50;5025986;28;20229;-72
2023/09/05 10:20:19;;;;;;;8.30;4.63;;;;;;;21.44;69.12;95450.53;5006108;28;20665;-72
2023/09/05 10:22:44;;;;;;;11.07;4.77;;;;;;;21.44;70.49;95449.72;5022970;28;20701;-72
2023/09/05 10:25:12;;;;;;;6.43;4.67;;;;;;;21.45;70.65;95438.81;5037361;28;20241;-74
2023/09/05 10:27:37;;;;;;;10.03;5.23;;;;;;;21.63;73.18;95434.94;5007624;28;20245;-74
2023/09/05 10:30:03;;;;;;;6.70;4.70;;;;;;;21.74;72.09;95433.97;4994687;28;20676;-71
2023/09/05 10:32:29;;;;;;;10.13;5.13;;;;;;;21.64;69.72;95438.44;5007621;28;20233;-73
2023/09/05 10:34:58;;;;;;;8.27;4.83;;;;;;;21.65;70.98;95440.03;5008612;28;20229;-72
2023/09/05 10:37:42;;;;;;;7.70;5.07;;;;;;;21.82;71.10;95446.81;5011468;28;20233;-73
2023/09/05 10:40:09;;;;;;;9.80;5.17;;;;;;;21.81;69.93;95433.72;5003389;28;20945;-71
2023/09/05 10:42:36;;;;;;;9.70;5.10;;;;;;;21.58;68.78;95444.75;5006629;28;20617;-73
2023/09/05 10:45:18;;;;;;;7.07;5.17;;;;;;;21.54;69.77;95454.34;5005581;28;20229;-73
2023/09/05 10:47:43;;;;;;;11.83;5.00;;;;;;;21.61;69.17;95447.72;5007656;28;20248;-73
2023/09/05 10:50:10;;;;;;;7.10;4.83;;;;;;;21.68;70.19;95450.97;5025701;28;20232;-72
2023/09/05 10:52:35;;;;;;;11.20;5.00;;;;;;;21.70;71.54;95442.72;5016711;28;20229;-73
2023/09/05 10:55:29;;;;;;;9.07;4.80;;;;;;;21.71;72.59;95444.34;5007580;28;20233;-72
2023/09/05 10:57:55;;;;;;;9.27;4.73;;;;;;;21.78;68.76;95445.69;5020822;28;20237;-73
2023/09/05 11:00:22;;;;;;;8.03;4.60;;;;;;;21.96;71.43;95447.19;4992114;28;20229;-72
2023/09/05 11:02:48;;;;;;;8.13;5.20;;;;;;;21.90;70.29;95453.56;5025023;28;20237;-72
2023/09/05 11:05:18;;;;;;;8.07;4.80;;;;;;;22.25;70.32;95443.09;5023452;28;20233;-72
2023/09/05 11:07:48;;;;;;;10.93;4.70;;;;;;;22.30;68.11;95445.81;5003874;28;20237;-74
2023/09/05 11:10:28;;;;;;;8.13;4.80;;;;;;;22.36;69.05;95452.75;4994668;28;20225;-73
2023/09/05 11:12:53;;;;;;;10.53;5.20;;;;;;;22.41;69.35;95458.13;5009100;28;20234;-72
2023/09/05 11:15:32;;;;;;;9.07;5.27;;;;;;;22.49;69.69;95456.81;5028263;28;20251;-73
2023/09/05 11:18:00;;;;;;;7.27;4.73;;;;;;;22.35;69.32;95442.34;5028390;28;20738;-73
2023/09/05 11:20:42;;;;;;;9.63;4.90;;;;;;;22.33;67.19;95433.81;5004214;28;20233;-73
2023/09/05 11:23:22;;;;;;;10.23;4.63;;;;;;;22.24;65.70;95441.47;5005482;28;20900;-72
2023/09/05 11:25:48;;;;;;;7.10;4.70;;;;;;;22.24;65.88;95433.47;5027142;28;20226;-73